sensor_id;sensor_type;location;lat;lon;timestamp;pressure;altitude;pressure_sealevel;temperature;humidity
35892;BME280;21993;42.672;23.296;2023-06-14T00:01:44;94438.09;;;18.92;81.87
35892;BME280;21993;42.672;23.296;2023-06-14T00:04:11;94438.47;;;18.89;82.32
35892;BME280;21993;42.672;23.296;2023-06-14T00:06:38;94427.41;;;18.86;82.34
35892;BME280;21993;42.672;23.296;2023-06-14T00:09:03;94430.50;;;18.89;82.13
35892;BME280;21993;42.672;23.296;2023-06-14T00:11:30;94426.63;;;18.92;82.22
35892;BME280;21993;42.672;23.296;2023-06-14T00:13:56;94424.59;;;18.94;82.42
35892;BME280;21993;42.672;23.296;2023-06-14T00:16:21;94425.63;;;18.93;82.71
35892;BME280;21993;42.672;23.296;2023-06-14T00:18:48;94421.28;;;18.92;82.51
35892;BME280;21993;42.672;23.296;2023-06-14T00:21:13;94424.59;;;18.94;82.26
35892;BME280;21993;42.672;23.296;2023-06-14T00:23:39;94418.88;;;18.97;82.15
35892;BME280;21993;42.672;23.296;2023-06-14T00:26:05;94418.06;;;18.96;82.11
35892;BME280;21993;42.672;23.296;2023-06-14T00:28:30;94419.66;;;18.91;81.96
35892;BME280;21993;42.672;23.296;2023-06-14T00:30:56;94421.88;;;18.87;81.99
35892;BME280;21993;42.672;23.296;2023-06-14T00:33:21;94422.97;;;18.93;81.55
35892;BME280;21993;42.672;23.296;2023-06-14T00:35:46;94417.44;;;18.94;81.33
35892;BME280;21993;42.672;23.296;2023-06-14T00:38:12;94414.97;;;18.93;81.41
35892;BME280;21993;42.672;23.296;2023-06-14T00:40:38;94411.66;;;18.91;81.67
35892;BME280;21993;42.672;23.296;2023-06-14T00:43:03;94416.16;;;18.90;82.19
35892;BME280;21993;42.672;23.296;2023-06-14T00:45:28;94409.00;;;18.91;81.91
35892;BME280;21993;42.672;23.296;2023-06-14T00:47:56;94402.44;;;18.87;81.59
35892;BME280;21993;42.672;23.296;2023-06-14T00:50:23;94405.34;;;18.92;81.64
35892;BME280;21993;42.672;23.296;2023-06-14T00:52:49;94398.78;;;18.88;81.52
35892;BME280;21993;42.672;23.296;2023-06-14T00:55:14;94405.53;;;18.90;81.93
35892;BME280;21993;42.672;23.296;2023-06-14T00:57:40;94411.66;;;18.91;81.60
35892;BME280;21993;42.672;23.296;2023-06-14T01:00:07;94402.88;;;18.90;82.07
35892;BME280;21993;42.672;23.296;2023-06-14T01:02:38;94400.22;;;18.90;81.61
35892;BME280;21993;42.672;23.296;2023-06-14T01:05:04;94401.44;;;18.88;81.37
35892;BME280;21993;42.672;23.296;2023-06-14T01:15:31;94404.16;;;18.94;81.17
35892;BME280;21993;42.672;23.296;2023-06-14T01:17:57;94407.38;;;18.90;81.25
35892;BME280;21993;42.672;23.296;2023-06-14T01:20:32;94403.69;;;18.91;80.72
35892;BME280;21993;42.672;23.296;2023-06-14T01:22:59;94399.59;;;18.88;80.90
35892;BME280;21993;42.672;23.296;2023-06-14T01:25:25;94394.06;;;18.90;80.07
35892;BME280;21993;42.672;23.296;2023-06-14T01:28:03;94395.28;;;18.87;80.30
35892;BME280;21993;42.672;23.296;2023-06-14T01:30:30;94403.28;;;18.87;80.34
35892;BME280;21993;42.672;23.296;2023-06-14T01:32:58;94403.84;;;18.82;80.15
35892;BME280;21993;42.672;23.296;2023-06-14T01:35:24;94401.19;;;18.82;80.66
35892;BME280;21993;42.672;23.296;2023-06-14T01:37:51;94394.88;;;18.83;81.11
35892;BME280;21993;42.672;23.296;2023-06-14T01:40:18;94401.63;;;18.86;81.21
35892;BME280;21993;42.672;23.296;2023-06-14T01:42:46;94406.94;;;18.86;81.02
35892;BME280;21993;42.672;23.296;2023-06-14T01:45:12;94399.34;;;18.83;81.39
35892;BME280;21993;42.672;23.296;2023-06-14T01:47:37;94404.84;;;18.81;80.96
35892;BME280;21993;42.672;23.296;2023-06-14T01:50:04;94407.53;;;18.81;80.93
35892;BME280;21993;42.672;23.296;2023-06-14T01:52:29;94397.28;;;18.78;81.12
35892;BME280;21993;42.672;23.296;2023-06-14T01:54:55;94404.25;;;18.79;80.95
35892;BME280;21993;42.672;23.296;2023-06-14T01:57:21;94399.13;;;18.78;81.29
35892;BME280;21993;42.672;23.296;2023-06-14T01:59:47;94413.03;;;18.80;81.45
35892;BME280;21993;42.672;23.296;2023-06-14T02:02:14;94413.03;;;18.80;81.36
35892;BME280;21993;42.672;23.296;2023-06-14T02:04:40;94419.38;;;18.79;81.23
35892;BME280;21993;42.672;23.296;2023-06-14T02:07:05;94425.50;;;18.79;81.24
35892;BME280;21993;42.672;23.296;2023-06-14T02:09:31;94419.19;;;18.80;81.51
35892;BME280;21993;42.672;23.296;2023-06-14T02:11:56;94422.09;;;18.86;80.86
35892;BME280;21993;42.672;23.296;2023-06-14T02:14:21;94419.38;;;18.79;80.65
35892;BME280;21993;42.672;23.296;2023-06-14T02:16:47;94435.94;;;18.81;80.79
35892;BME280;21993;42.672;23.296;2023-06-14T02:19:15;94436.97;;;18.80;80.75
35892;BME280;21993;42.672;23.296;2023-06-14T02:21:41;94433.91;;;18.83;81.03
35892;BME280;21993;42.672;23.296;2023-06-14T02:24:07;94430.84;;;18.79;80.46
35892;BME280;21993;42.672;23.296;2023-06-14T02:26:32;94436.34;;;18.78;80.37
35892;BME280;21993;42.672;23.296;2023-06-14T02:28:58;94432.25;;;18.75;80.20
35892;BME280;21993;42.672;23.296;2023-06-14T02:31:23;94440.66;;;18.79;80.08
35892;BME280;21993;42.672;23.296;2023-06-14T02:33:49;94433.69;;;18.78;80.18
35892;BME280;21993;42.672;23.296;2023-06-14T02:36:15;94439.22;;;18.76;79.77
35892;BME280;21993;42.672;23.296;2023-06-14T02:38:40;94442.03;;;18.75;79.87
35892;BME280;21993;42.672;23.296;2023-06-14T02:41:06;94432.00;;;18.70;79.99
35892;BME280;21993;42.672;23.296;2023-06-14T02:43:31;94430.72;;;18.66;80.02
35892;BME280;21993;42.672;23.296;2023-06-14T02:45:57;94426.41;;;18.65;79.88
35892;BME280;21993;42.672;23.296;2023-06-14T02:48:22;94430.72;;;18.66;80.24
35892;BME280;21993;42.672;23.296;2023-06-14T02:50:47;94428.22;;;18.65;79.56
35892;BME280;21993;42.672;23.296;2023-06-14T02:53:13;94435.22;;;18.66;79.54
35892;BME280;21993;42.672;23.296;2023-06-14T02:55:38;94434.38;;;18.65;79.89
35892;BME280;21993;42.672;23.296;2023-06-14T02:58:05;94432.72;;;18.64;79.81
35892;BME280;21993;42.672;23.296;2023-06-14T03:00:31;94435.78;;;18.61;79.89
35892;BME280;21993;42.672;23.296;2023-06-14T03:02:56;94435.97;;;18.60;79.77
35892;BME280;21993;42.672;23.296;2023-06-14T03:05:22;94437.22;;;18.64;79.69
35892;BME280;21993;42.672;23.296;2023-06-14T03:07:48;94434.94;;;18.61;79.44
35892;BME280;21993;42.672;23.296;2023-06-14T03:10:14;94441.09;;;18.61;79.51
35892;BME280;21993;42.672;23.296;2023-06-14T03:12:39;94444.56;;;18.62;79.38
35892;BME280;21993;42.672;23.296;2023-06-14T03:15:05;94445.38;;;18.62;79.45
35892;BME280;21993;42.672;23.296;2023-06-14T03:17:31;94455.00;;;18.63;79.18
35892;BME280;21993;42.672;23.296;2023-06-14T03:20:01;94453.09;;;18.57;79.26
35892;BME280;21993;42.672;23.296;2023-06-14T03:22:27;94459.63;;;18.54;79.92
35892;BME280;21993;42.672;23.296;2023-06-14T03:24:53;94451.66;;;18.54;80.23
35892;BME280;21993;42.672;23.296;2023-06-14T03:27:19;94448.19;;;18.54;80.50
35892;BME280;21993;42.672;23.296;2023-06-14T03:29:44;94449.38;;;18.51;80.52
35892;BME280;21993;42.672;23.296;2023-06-14T03:32:10;94450.41;;;18.50;80.83
35892;BME280;21993;42.672;23.296;2023-06-14T03:34:35;94461.03;;;18.50;81.03
35892;BME280;21993;42.672;23.296;2023-06-14T03:37:04;94462.03;;;18.49;81.22
35892;BME280;21993;42.672;23.296;2023-06-14T03:39:30;94458.19;;;18.52;80.89
35892;BME280;21993;42.672;23.296;2023-06-14T03:41:55;94460.84;;;18.52;81.13
35892;BME280;21993;42.672;23.296;2023-06-14T03:44:21;94454.50;;;18.53;81.33
35892;BME280;21993;42.672;23.296;2023-06-14T03:46:46;94463.50;;;18.52;81.34
35892;BME280;21993;42.672;23.296;2023-06-14T03:49:12;94463.69;;;18.50;80.96
35892;BME280;21993;42.672;23.296;2023-06-14T03:51:38;94460.66;;;18.53;80.86
35892;BME280;21993;42.672;23.296;2023-06-14T03:54:05;94454.50;;;18.53;80.80
35892;BME280;21993;42.672;23.296;2023-06-14T03:56:31;94454.94;;;18.56;80.63
35892;BME280;21993;42.672;23.296;2023-06-14T03:58:56;94459.81;;;18.53;80.92
35892;BME280;21993;42.672;23.296;2023-06-14T04:01:22;94466.16;;;18.52;81.33
35892;BME280;21993;42.672;23.296;2023-06-14T04:03:52;94470.25;;;18.54;80.63
35892;BME280;21993;42.672;23.296;2023-06-14T04:06:18;94476.59;;;18.53;81.07
35892;BME280;21993;42.672;23.296;2023-06-14T04:08:44;94466.78;;;18.54;80.78
35892;BME280;21993;42.672;23.296;2023-06-14T04:11:10;94472.53;;;18.57;80.25
35892;BME280;21993;42.672;23.296;2023-06-14T04:13:36;94467.41;;;18.56;79.94
35892;BME280;21993;42.672;23.296;2023-06-14T04:16:03;94460.25;;;18.56;80.37
35892;BME280;21993;42.672;23.296;2023-06-14T04:18:28;94459.63;;;18.54;80.20
35892;BME280;21993;42.672;23.296;2023-06-14T04:20:53;94472.28;;;18.52;80.57
35892;BME280;21993;42.672;23.296;2023-06-14T04:23:19;94462.28;;;18.54;80.39
35892;BME280;21993;42.672;23.296;2023-06-14T04:25:45;94469.25;;;18.55;80.99
35892;BME280;21993;42.672;23.296;2023-06-14T04:28:13;94461.06;;;18.57;81.04
35892;BME280;21993;42.672;23.296;2023-06-14T04:30:43;94465.53;;;18.50;80.48
35892;BME280;21993;42.672;23.296;2023-06-14T04:33:08;94465.16;;;18.53;80.94
35892;BME280;21993;42.672;23.296;2023-06-14T04:35:35;94466.22;;;18.59;80.04
35892;BME280;21993;42.672;23.296;2023-06-14T04:38:01;94466.59;;;18.55;80.39
35892;BME280;21993;42.672;23.296;2023-06-14T04:40:30;94458.81;;;18.54;80.91
35892;BME280;21993;42.672;23.296;2023-06-14T04:42:55;94462.09;;;18.56;81.30
35892;BME280;21993;42.672;23.296;2023-06-14T04:45:21;94464.75;;;18.56;81.27
35892;BME280;21993;42.672;23.296;2023-06-14T04:47:47;94465.38;;;18.58;81.41
35892;BME280;21993;42.672;23.296;2023-06-14T04:50:12;94465.38;;;18.58;81.49
35892;BME280;21993;42.672;23.296;2023-06-14T04:52:38;94463.56;;;18.59;81.63
35892;BME280;21993;42.672;23.296;2023-06-14T04:55:04;94471.06;;;18.70;80.43
35892;BME280;21993;42.672;23.296;2023-06-14T04:57:30;94471.63;;;18.65;80.23
35892;BME280;21993;42.672;23.296;2023-06-14T04:59:56;94478.22;;;18.69;80.85
35892;BME280;21993;42.672;23.296;2023-06-14T05:02:23;94480.94;;;18.76;80.43
35892;BME280;21993;42.672;23.296;2023-06-14T05:04:49;94488.25;;;18.95;79.18
35892;BME280;21993;42.672;23.296;2023-06-14T05:07:14;94482.94;;;18.95;78.48
35892;BME280;21993;42.672;23.296;2023-06-14T05:09:40;94485.09;;;18.85;78.54
35892;BME280;21993;42.672;23.296;2023-06-14T05:12:06;94483.06;;;18.87;79.46
35892;BME280;21993;42.672;23.296;2023-06-14T05:14:35;94482.63;;;18.83;80.00
35892;BME280;21993;42.672;23.296;2023-06-14T05:17:01;94478.69;;;18.79;80.20
35892;BME280;21993;42.672;23.296;2023-06-14T05:19:27;94490.63;;;18.83;80.56
35892;BME280;21993;42.672;23.296;2023-06-14T05:21:53;94496.44;;;18.94;79.39
35892;BME280;21993;42.672;23.296;2023-06-14T05:24:19;94500.59;;;19.03;79.44
35892;BME280;21993;42.672;23.296;2023-06-14T05:26:45;94509.13;;;18.98;78.48
35892;BME280;21993;42.672;23.296;2023-06-14T05:29:11;94506.25;;;18.93;79.67
35892;BME280;21993;42.672;23.296;2023-06-14T05:31:36;94506.69;;;18.97;79.59
35892;BME280;21993;42.672;23.296;2023-06-14T05:34:02;94517.50;;;18.95;79.39
35892;BME280;21993;42.672;23.296;2023-06-14T05:36:27;94511.66;;;19.06;78.85
35892;BME280;21993;42.672;23.296;2023-06-14T05:38:54;94512.34;;;19.15;78.59
35892;BME280;21993;42.672;23.296;2023-06-14T05:41:24;94514.09;;;19.29;76.61
35892;BME280;21993;42.672;23.296;2023-06-14T05:43:51;94512.34;;;19.15;77.43
35892;BME280;21993;42.672;23.296;2023-06-14T05:46:17;94509.31;;;19.18;78.79
35892;BME280;21993;42.672;23.296;2023-06-14T05:48:47;94522.09;;;19.29;78.19
35892;BME280;21993;42.672;23.296;2023-06-14T05:51:12;94521.88;;;19.31;78.13
35892;BME280;21993;42.672;23.296;2023-06-14T05:53:38;94521.53;;;19.40;78.10
35892;BME280;21993;42.672;23.296;2023-06-14T05:56:03;94527.94;;;19.46;77.47
35892;BME280;21993;42.672;23.296;2023-06-14T05:58:29;94519.81;;;19.54;77.75
35892;BME280;21993;42.672;23.296;2023-06-14T06:00:54;94522.25;;;19.56;77.64
35892;BME280;21993;42.672;23.296;2023-06-14T06:03:20;94520.91;;;19.60;77.07
35892;BME280;21993;42.672;23.296;2023-06-14T06:05:46;94523.38;;;19.61;77.02
35892;BME280;21993;42.672;23.296;2023-06-14T06:08:11;94531.94;;;19.57;77.23
35892;BME280;21993;42.672;23.296;2023-06-14T06:10:37;94526.41;;;19.58;77.07
35892;BME280;21993;42.672;23.296;2023-06-14T06:13:02;94522.47;;;19.54;77.23
35892;BME280;21993;42.672;23.296;2023-06-14T06:15:28;94524.56;;;19.59;77.50
35892;BME280;21993;42.672;23.296;2023-06-14T06:17:53;94525.56;;;19.58;77.61
35892;BME280;21993;42.672;23.296;2023-06-14T06:20:18;94530.59;;;19.74;77.41
35892;BME280;21993;42.672;23.296;2023-06-14T06:22:44;94533.00;;;19.62;77.74
35892;BME280;21993;42.672;23.296;2023-06-14T06:25:09;94538.56;;;19.67;78.18
35892;BME280;21993;42.672;23.296;2023-06-14T06:27:35;94530.84;;;19.79;76.77
35892;BME280;21993;42.672;23.296;2023-06-14T06:30:03;94539.22;;;19.76;76.89
35892;BME280;21993;42.672;23.296;2023-06-14T06:32:28;94536.53;;;19.70;77.69
35892;BME280;21993;42.672;23.296;2023-06-14T06:34:54;94538.75;;;19.66;77.99
35892;BME280;21993;42.672;23.296;2023-06-14T06:37:19;94534.91;;;19.75;77.37
35892;BME280;21993;42.672;23.296;2023-06-14T06:39:45;94542.53;;;19.78;77.07
35892;BME280;21993;42.672;23.296;2023-06-14T06:42:12;94536.13;;;19.73;77.08
35892;BME280;21993;42.672;23.296;2023-06-14T06:44:37;94541.25;;;19.74;77.53
35892;BME280;21993;42.672;23.296;2023-06-14T06:47:03;94537.00;;;19.80;76.63
35892;BME280;21993;42.672;23.296;2023-06-14T06:49:28;94537.59;;;19.82;76.43
35892;BME280;21993;42.672;23.296;2023-06-14T06:54:27;94539.22;;;19.76;76.72
35892;BME280;21993;42.672;23.296;2023-06-14T06:56:52;94537.56;;;19.75;77.04
35892;BME280;21993;42.672;23.296;2023-06-14T06:59:18;94543.53;;;19.77;76.43
35892;BME280;21993;42.672;23.296;2023-06-14T07:01:43;94538.56;;;19.67;76.87
35892;BME280;21993;42.672;23.296;2023-06-14T07:04:09;94537.69;;;19.60;77.96
35892;BME280;21993;42.672;23.296;2023-06-14T07:06:34;94547.09;;;19.56;78.83
35892;BME280;21993;42.672;23.296;2023-06-14T07:09:00;94544.03;;;19.94;75.41
35892;BME280;21993;42.672;23.296;2023-06-14T07:11:30;94538.09;;;19.99;73.58
35892;BME280;21993;42.672;23.296;2023-06-14T07:13:56;94541.38;;;20.01;74.16
35892;BME280;21993;42.672;23.296;2023-06-14T07:16:21;94542.94;;;19.82;75.79
35892;BME280;21993;42.672;23.296;2023-06-14T07:18:47;94544.81;;;19.88;76.21
35892;BME280;21993;42.672;23.296;2023-06-14T07:21:12;94526.66;;;20.05;74.93
35892;BME280;21993;42.672;23.296;2023-06-14T07:23:38;94528.59;;;20.24;72.82
35892;BME280;21993;42.672;23.296;2023-06-14T07:26:03;94527.94;;;20.15;72.98
35892;BME280;21993;42.672;23.296;2023-06-14T07:28:28;94533.88;;;20.11;73.69
35892;BME280;21993;42.672;23.296;2023-06-14T07:30:54;94532.84;;;20.12;74.09
35892;BME280;21993;42.672;23.296;2023-06-14T07:33:20;94529.94;;;20.07;75.28
35892;BME280;21993;42.672;23.296;2023-06-14T07:35:45;94527.59;;;20.32;72.97
35892;BME280;21993;42.672;23.296;2023-06-14T07:38:11;94529.63;;;20.30;73.32
35892;BME280;21993;42.672;23.296;2023-06-14T07:40:36;94530.25;;;20.32;72.47
35892;BME280;21993;42.672;23.296;2023-06-14T07:43:02;94528.19;;;20.34;72.91
35892;BME280;21993;42.672;23.296;2023-06-14T07:45:27;94535.22;;;20.35;72.65
35892;BME280;21993;42.672;23.296;2023-06-14T07:47:52;94536.38;;;20.25;73.25
35892;BME280;21993;42.672;23.296;2023-06-14T07:50:18;94526.31;;;20.21;73.80
35892;BME280;21993;42.672;23.296;2023-06-14T07:52:44;94536.50;;;20.45;73.67
35892;BME280;21993;42.672;23.296;2023-06-14T07:55:10;94541.00;;;20.45;72.49
35892;BME280;21993;42.672;23.296;2023-06-14T07:57:35;94546.38;;;20.51;72.46
35892;BME280;21993;42.672;23.296;2023-06-14T08:00:02;94542.25;;;20.56;72.07
35892;BME280;21993;42.672;23.296;2023-06-14T08:02:31;94546.97;;;20.54;71.53
35892;BME280;21993;42.672;23.296;2023-06-14T08:04:56;94541.22;;;20.50;72.14
35892;BME280;21993;42.672;23.296;2023-06-14T08:07:22;94547.38;;;20.50;72.76
35892;BME280;21993;42.672;23.296;2023-06-14T08:09:47;94554.16;;;20.53;73.61
35892;BME280;21993;42.672;23.296;2023-06-14T08:12:13;94554.56;;;20.57;72.95
35892;BME280;21993;42.672;23.296;2023-06-14T08:14:39;94572.41;;;20.49;73.91
35892;BME280;21993;42.672;23.296;2023-06-14T08:17:05;94569.34;;;20.52;73.25
35892;BME280;21993;42.672;23.296;2023-06-14T08:19:30;94566.28;;;20.62;72.63
35892;BME280;21993;42.672;23.296;2023-06-14T08:21:56;94555.69;;;20.95;70.92
35892;BME280;21993;42.672;23.296;2023-06-14T08:24:22;94563.28;;;20.92;70.38
35892;BME280;21993;42.672;23.296;2023-06-14T08:26:53;94569.47;;;21.05;68.78
35892;BME280;21993;42.672;23.296;2023-06-14T08:29:18;94568.22;;;20.95;69.32
35892;BME280;21993;42.672;23.296;2023-06-14T08:31:45;94565.56;;;20.95;70.57
35892;BME280;21993;42.672;23.296;2023-06-14T08:34:10;94563.91;;;21.00;70.57
35892;BME280;21993;42.672;23.296;2023-06-14T08:36:36;94569.69;;;21.04;70.38
35892;BME280;21993;42.672;23.296;2023-06-14T08:39:02;94569.88;;;21.09;69.60
35892;BME280;21993;42.672;23.296;2023-06-14T08:41:28;94567.00;;;21.04;70.46
35892;BME280;21993;42.672;23.296;2023-06-14T08:43:55;94550.56;;;21.07;70.46
35892;BME280;21993;42.672;23.296;2023-06-14T08:46:21;94560.66;;;21.12;70.29
35892;BME280;21993;42.672;23.296;2023-06-14T08:48:51;94556.13;;;21.12;70.15
35892;BME280;21993;42.672;23.296;2023-06-14T08:51:18;94554.91;;;21.15;70.07
35892;BME280;21993;42.672;23.296;2023-06-14T08:53:44;94551.41;;;21.14;70.47
35892;BME280;21993;42.672;23.296;2023-06-14T08:56:10;94550.78;;;21.25;70.84
35892;BME280;21993;42.672;23.296;2023-06-14T08:58:43;94547.94;;;21.27;70.66
35892;BME280;21993;42.672;23.296;2023-06-14T09:01:11;94554.53;;;21.44;69.63
35892;BME280;21993;42.672;23.296;2023-06-14T09:03:42;94553.91;;;21.49;69.77
35892;BME280;21993;42.672;23.296;2023-06-14T09:06:08;94545.88;;;21.55;69.42
35892;BME280;21993;42.672;23.296;2023-06-14T09:08:43;94552.88;;;21.63;69.32
35892;BME280;21993;42.672;23.296;2023-06-14T09:11:11;94549.38;;;21.62;68.75
35892;BME280;21993;42.672;23.296;2023-06-14T09:13:38;94536.03;;;21.62;68.78
35892;BME280;21993;42.672;23.296;2023-06-14T09:16:04;94542.78;;;21.58;69.34
35892;BME280;21993;42.672;23.296;2023-06-14T09:21:02;94529.16;;;21.93;68.56
35892;BME280;21993;42.672;23.296;2023-06-14T09:23:27;94539.47;;;21.89;68.44
35892;BME280;21993;42.672;23.296;2023-06-14T09:25:53;94545.38;;;22.05;66.81
35892;BME280;21993;42.672;23.296;2023-06-14T09:28:19;94540.59;;;22.27;63.96
35892;BME280;21993;42.672;23.296;2023-06-14T09:30:47;94531.50;;;22.34;63.11
35892;BME280;21993;42.672;23.296;2023-06-14T09:33:17;94536.94;;;22.21;64.64
35892;BME280;21993;42.672;23.296;2023-06-14T09:35:45;94537.16;;;22.13;65.33
35892;BME280;21993;42.672;23.296;2023-06-14T09:38:11;94535.09;;;22.15;65.34
35892;BME280;21993;42.672;23.296;2023-06-14T09:40:36;94536.88;;;22.28;64.31
35892;BME280;21993;42.672;23.296;2023-06-14T09:43:05;94530.94;;;22.26;64.63
35892;BME280;21993;42.672;23.296;2023-06-14T09:45:31;94522.50;;;22.29;64.49
35892;BME280;21993;42.672;23.296;2023-06-14T09:47:58;94533.66;;;22.12;64.66
35892;BME280;21993;42.672;23.296;2023-06-14T09:50:23;94522.09;;;22.25;65.58
35892;BME280;21993;42.672;23.296;2023-06-14T09:52:52;94514.44;;;22.35;64.17
35892;BME280;21993;42.672;23.296;2023-06-14T09:55:19;94512.38;;;22.37;64.21
35892;BME280;21993;42.672;23.296;2023-06-14T09:57:45;94513.16;;;22.44;64.89
35892;BME280;21993;42.672;23.296;2023-06-14T10:00:13;94511.88;;;22.54;63.18
35892;BME280;21993;42.672;23.296;2023-06-14T10:02:42;94511.44;;;22.63;63.47
35892;BME280;21993;42.672;23.296;2023-06-14T10:05:15;94506.06;;;22.63;64.18
35892;BME280;21993;42.672;23.296;2023-06-14T10:08:00;94507.47;;;22.72;63.45
35892;BME280;21993;42.672;23.296;2023-06-14T10:10:25;94508.66;;;22.76;62.70
35892;BME280;21993;42.672;23.296;2023-06-14T10:12:51;94492.91;;;22.93;62.70
35892;BME280;21993;42.672;23.296;2023-06-14T10:15:22;94496.28;;;22.82;63.57
35892;BME280;21993;42.672;23.296;2023-06-14T10:17:53;94492.53;;;22.90;63.03
35892;BME280;21993;42.672;23.296;2023-06-14T10:20:28;94489.97;;;23.01;62.02
35892;BME280;21993;42.672;23.296;2023-06-14T10:23:10;94488.88;;;23.09;61.12
35892;BME280;21993;42.672;23.296;2023-06-14T10:25:37;94483.22;;;22.99;61.75
35892;BME280;21993;42.672;23.296;2023-06-14T10:28:18;94490.38;;;23.05;62.37
35892;BME280;21993;42.672;23.296;2023-06-14T10:31:09;94485.97;;;22.86;63.23
35892;BME280;21993;42.672;23.296;2023-06-14T10:33:55;94484.47;;;22.96;62.85
35892;BME280;21993;42.672;23.296;2023-06-14T10:36:31;94474.91;;;23.07;63.41
35892;BME280;21993;42.672;23.296;2023-06-14T10:39:15;94481.44;;;23.11;64.93
35892;BME280;21993;42.672;23.296;2023-06-14T10:41:53;94478.31;;;23.21;63.96
35892;BME280;21993;42.672;23.296;2023-06-14T10:46:51;94475.75;;;23.51;62.43
35892;BME280;21993;42.672;23.296;2023-06-14T10:49:37;94481.63;;;23.66;62.32
35892;BME280;21993;42.672;23.296;2023-06-14T10:52:15;94473.75;;;23.71;60.59
35892;BME280;21993;42.672;23.296;2023-06-14T10:57:24;94463.53;;;23.98;58.29
35892;BME280;21993;42.672;23.296;2023-06-14T10:59:50;94451.00;;;23.92;58.16
35892;BME280;21993;42.672;23.296;2023-06-14T11:05:14;94451.16;;;23.79;60.87
35892;BME280;21993;42.672;23.296;2023-06-14T11:10:37;94447.53;;;23.92;58.72
35892;BME280;21993;42.672;23.296;2023-06-14T11:13:03;94453.34;;;23.89;59.59
35892;BME280;21993;42.672;23.296;2023-06-14T11:15:33;94443.94;;;23.79;59.59
35892;BME280;21993;42.672;23.296;2023-06-14T11:18:06;94435.97;;;23.91;59.35
35892;BME280;21993;42.672;23.296;2023-06-14T11:20:33;94437.31;;;24.00;59.09
35892;BME280;21993;42.672;23.296;2023-06-14T11:22:59;94443.94;;;23.98;58.29
35892;BME280;21993;42.672;23.296;2023-06-14T11:25:26;94436.19;;;24.08;57.80
35892;BME280;21993;42.672;23.296;2023-06-14T11:27:53;94432.22;;;24.10;58.29
35892;BME280;21993;42.672;23.296;2023-06-14T11:30:19;94444.72;;;24.17;58.11
35892;BME280;21993;42.672;23.296;2023-06-14T11:32:48;94431.97;;;24.30;57.05
35892;BME280;21993;42.672;23.296;2023-06-14T11:35:15;94435.63;;;24.18;58.38
35892;BME280;21993;42.672;23.296;2023-06-14T11:37:41;94434.78;;;24.05;59.35
35892;BME280;21993;42.672;23.296;2023-06-14T11:40:07;94425.56;;;24.13;58.97
35892;BME280;21993;42.672;23.296;2023-06-14T11:42:35;94432.38;;;24.15;57.03
35892;BME280;21993;42.672;23.296;2023-06-14T11:45:01;94423.75;;;24.13;57.23
35892;BME280;21993;42.672;23.296;2023-06-14T11:47:38;94428.44;;;24.30;57.06
35892;BME280;21993;42.672;23.296;2023-06-14T11:50:06;94422.97;;;24.25;56.88
35892;BME280;21993;42.672;23.296;2023-06-14T11:52:32;94422.25;;;24.29;56.85
35892;BME280;21993;42.672;23.296;2023-06-14T11:54:58;94417.72;;;24.30;55.99
35892;BME280;21993;42.672;23.296;2023-06-14T11:57:24;94412.16;;;24.31;57.05
35892;BME280;21993;42.672;23.296;2023-06-14T11:59:50;94404.72;;;24.15;58.72
35892;BME280;21993;42.672;23.296;2023-06-14T12:02:18;94398.00;;;24.24;58.33
35892;BME280;21993;42.672;23.296;2023-06-14T12:04:44;94406.78;;;24.31;57.63
35892;BME280;21993;42.672;23.296;2023-06-14T12:07:13;94391.31;;;24.33;57.23
35892;BME280;21993;42.672;23.296;2023-06-14T12:12:17;94386.34;;;24.49;56.82
35892;BME280;21993;42.672;23.296;2023-06-14T12:14:42;94374.63;;;24.43;56.87
35892;BME280;21993;42.672;23.296;2023-06-14T12:17:08;94375.38;;;24.50;56.21
35892;BME280;21993;42.672;23.296;2023-06-14T12:19:41;94372.69;;;24.50;56.81
35892;BME280;21993;42.672;23.296;2023-06-14T12:22:11;94375.13;;;24.63;56.65
35892;BME280;21993;42.672;23.296;2023-06-14T12:24:37;94375.03;;;24.70;56.69
35892;BME280;21993;42.672;23.296;2023-06-14T12:27:03;94378.59;;;24.82;54.97
35892;BME280;21993;42.672;23.296;2023-06-14T12:29:29;94378.59;;;24.82;55.70
35892;BME280;21993;42.672;23.296;2023-06-14T12:31:55;94374.03;;;24.83;55.91
35892;BME280;21993;42.672;23.296;2023-06-14T12:34:25;94377.38;;;24.78;58.17
35892;BME280;21993;42.672;23.296;2023-06-14T12:36:55;94367.75;;;24.89;56.89
35892;BME280;21993;42.672;23.296;2023-06-14T12:39:21;94363.63;;;24.86;54.61
35892;BME280;21993;42.672;23.296;2023-06-14T12:41:48;94374.03;;;24.83;54.39
35892;BME280;21993;42.672;23.296;2023-06-14T12:44:14;94357.09;;;24.94;54.55
35892;BME280;21993;42.672;23.296;2023-06-14T12:46:43;94354.41;;;24.94;55.50
35892;BME280;21993;42.672;23.296;2023-06-14T12:49:12;94355.72;;;25.03;55.25
35892;BME280;21993;42.672;23.296;2023-06-14T12:51:38;94359.22;;;25.04;55.16
35892;BME280;21993;42.672;23.296;2023-06-14T12:54:05;94358.19;;;25.16;54.80
35892;BME280;21993;42.672;23.296;2023-06-14T12:56:30;94344.53;;;25.06;54.96
35892;BME280;21993;42.672;23.296;2023-06-14T12:58:56;94349.97;;;24.99;59.67
35892;BME280;21993;42.672;23.296;2023-06-14T13:01:21;94347.88;;;25.02;61.07
35892;BME280;21993;42.672;23.296;2023-06-14T13:03:47;94362.22;;;24.95;59.38
35892;BME280;21993;42.672;23.296;2023-06-14T13:06:13;94359.53;;;24.95;59.48
35892;BME280;21993;42.672;23.296;2023-06-14T13:08:39;94355.59;;;24.98;57.72
35892;BME280;21993;42.672;23.296;2023-06-14T13:11:04;94358.50;;;24.85;57.95
35892;BME280;21993;42.672;23.296;2023-06-14T13:13:30;94351.72;;;24.82;59.33
35892;BME280;21993;42.672;23.296;2023-06-14T13:15:55;94359.53;;;24.84;59.40